Cook, Indiana
Current Conditions -  °F | °C
As of 7:55 AM on Thursday 30 Oct 2014 (Local Time) from KIGQ Reporting Station
Clear Clear  
Wind Chill: 32°   Ceiling: Unl
Heat Index: 32°   Visibility: 10mi
Dew Point: 31°   Wind: 0mph
Humidity: 98%   Direction: NA
Pressure: 30.15"   Gusts: NA
Location:  41.3739°N, 87.4748°W
Report Text: KIGQ 301255Z AUTO 00000KT 10SM CLR 00/00 A3015 RMK AO2 T00001003
Loading
Personal Weather Stations






























Interactive Weather Map
Tropical Storm Tracking
New forecast layout! Learn more

10-Day Weather Forecast

Advertisements
Track Severe Weather on mobile